Time;durP1;ratioP1;P1;durP2;ratioP2;P2;SDS_P1;SDS_P2;PMS_P1;PMS_P2;Temp;Humidity;BMP_temperature;BMP_pressure;BME280_temperature;BME280_humidity;BME280_pressure;Samples;Min_cycle;Max_cycle;Signal;HPM_P1;HPM_P2
2021/07/07 00:01:03;;;;;;;;;;;18.90;1.00;;;;;;5069646;28;20291;-62
2021/07/07 00:03:29;;;;;;;;;;;18.90;1.00;;;;;;5069093;28;20344;-61
2021/07/07 00:05:54;;;;;;;;;;;19.00;1.00;;;;;;5070069;28;19948;-61
2021/07/07 00:08:20;;;;;;;;;;;19.00;1.00;;;;;;5068279;28;19931;-62
2021/07/07 00:10:45;;;;;;;;;;;18.90;1.00;;;;;;5069914;28;19908;-62
2021/07/07 00:13:11;;;;;;;;;;;18.90;1.00;;;;;;5068588;28;19965;-62
2021/07/07 00:15:36;;;;;;;;;;;18.90;1.00;;;;;;5069785;28;20015;-62
2021/07/07 00:18:07;;;;;;;;;;;18.90;1.00;;;;;;5068679;28;20317;-61
2021/07/07 00:20:44;;;;;;;;;;;18.90;1.00;;;;;;5069819;28;19912;-61
2021/07/07 00:23:10;;;;;;;;;;;18.90;1.00;;;;;;5065913;28;20399;-59
2021/07/07 00:25:36;;;;;;;;;;;18.90;1.00;;;;;;5050020;28;19913;-60
2021/07/07 00:28:01;;;;;;;;;;;18.80;1.00;;;;;;5047377;28;19940;-61
2021/07/07 00:30:27;;;;;;;;;;;18.80;1.00;;;;;;5049600;28;19913;-61
2021/07/07 00:32:53;;;;;;;;;;;18.80;1.00;;;;;;5048957;28;19928;-61
2021/07/07 00:35:19;;;;;;;;;;;18.90;1.00;;;;;;5060993;28;19908;-61
2021/07/07 00:37:44;;;;;;;;;;;18.80;1.00;;;;;;5068118;28;19914;-61
2021/07/07 00:40:10;;;;;;;;;;;18.80;1.00;;;;;;5068543;28;20281;-61
2021/07/07 00:42:36;;;;;;;;;;;18.90;1.00;;;;;;5067518;28;20049;-62
2021/07/07 00:45:02;;;;;;;;;;;18.90;1.00;;;;;;5069075;28;19915;-62
2021/07/07 00:47:27;;;;;;;;;;;18.90;1.00;;;;;;5067070;28;19913;-61
2021/07/07 00:49:53;;;;;;;;;;;18.90;1.00;;;;;;5068780;28;20010;-61
2021/07/07 00:52:18;;;;;;;;;;;19.00;1.00;;;;;;5068590;28;20334;-61
2021/07/07 00:54:44;;;;;;;;;;;19.00;1.00;;;;;;5068182;28;19928;-61
2021/07/07 00:57:11;;;;;;;;;;;19.00;1.00;;;;;;5068003;28;19935;-60
2021/07/07 00:59:36;;;;;;;;;;;19.00;1.00;;;;;;5067961;28;20214;-62
2021/07/07 01:02:03;;;;;;;;;;;19.00;1.00;;;;;;5088034;23;20519;-62
2021/07/07 01:04:28;;;;;;;;;;;19.00;1.00;;;;;;5068589;28;19921;-62
2021/07/07 01:06:54;;;;;;;;;;;18.90;1.00;;;;;;5068698;28;19978;-62
2021/07/07 01:09:19;;;;;;;;;;;18.90;1.00;;;;;;5067766;28;20042;-61
2021/07/07 01:11:45;;;;;;;;;;;18.90;1.00;;;;;;5067231;28;20011;-62
2021/07/07 01:14:11;;;;;;;;;;;18.90;1.00;;;;;;5068661;28;20286;-62
2021/07/07 01:16:36;;;;;;;;;;;18.90;1.00;;;;;;5068750;28;19962;-64
2021/07/07 01:19:02;;;;;;;;;;;18.90;1.00;;;;;;5067432;28;20299;-62
2021/07/07 01:21:27;;;;;;;;;;;18.90;1.00;;;;;;5068138;28;20019;-62
2021/07/07 01:23:53;;;;;;;;;;;18.90;1.00;;;;;;5060014;28;19920;-62
2021/07/07 01:26:19;;;;;;;;;;;18.90;1.00;;;;;;5047862;28;19912;-62
2021/07/07 01:28:45;;;;;;;;;;;18.90;1.00;;;;;;5047841;28;19912;-62
2021/07/07 01:31:10;;;;;;;;;;;18.90;1.00;;;;;;5048718;28;20334;-62
2021/07/07 01:33:36;;;;;;;;;;;18.90;1.00;;;;;;5047826;28;20331;-61
2021/07/07 01:36:02;;;;;;;;;;;18.80;1.00;;;;;;5066212;28;20334;-62
2021/07/07 01:38:27;;;;;;;;;;;18.80;1.00;;;;;;5067220;28;20007;-62
2021/07/07 01:40:57;;;;;;;;;;;18.80;1.00;;;;;;5068294;28;20292;-62
2021/07/07 01:43:22;;;;;;;;;;;18.80;1.00;;;;;;5067420;28;19917;-62
2021/07/07 01:45:48;;;;;;;;;;;18.80;1.00;;;;;;5067435;28;19985;-60
2021/07/07 01:48:13;;;;;;;;;;;18.80;1.00;;;;;;5066968;28;19979;-62
2021/07/07 01:50:39;;;;;;;;;;;18.80;1.00;;;;;;5066830;28;19916;-62
2021/07/07 01:53:04;;;;;;;;;;;18.80;1.00;;;;;;5067714;28;20377;-62
2021/07/07 01:55:30;;;;;;;;;;;18.80;1.00;;;;;;5067934;28;20057;-61
2021/07/07 01:57:55;;;;;;;;;;;18.80;1.00;;;;;;5066598;28;20003;-62
2021/07/07 02:00:22;;;;;;;;;;;18.80;1.00;;;;;;5068331;28;20391;-62
2021/07/07 02:02:49;;;;;;;;;;;18.80;1.00;;;;;;5067759;28;19916;-62
2021/07/07 02:05:15;;;;;;;;;;;18.80;1.00;;;;;;5068340;28;19999;-62
2021/07/07 02:07:41;;;;;;;;;;;18.80;1.00;;;;;;5069315;28;20475;-62
2021/07/07 02:10:09;;;;;;;;;;;18.80;1.00;;;;;;5071564;28;19912;-62
2021/07/07 02:12:35;;;;;;;;;;;18.80;1.00;;;;;;5070838;28;19912;-62
2021/07/07 02:15:01;;;;;;;;;;;18.80;1.00;;;;;;5071958;28;20034;-62
2021/07/07 02:17:27;;;;;;;;;;;18.70;1.00;;;;;;5070784;28;20025;-62
2021/07/07 02:19:52;;;;;;;;;;;18.70;1.00;;;;;;5071129;28;19978;-62
2021/07/07 02:22:17;;;;;;;;;;;18.60;1.00;;;;;;5071169;28;19960;-62
2021/07/07 02:24:43;;;;;;;;;;;18.60;1.00;;;;;;5070843;28;20010;-62
2021/07/07 02:27:08;;;;;;;;;;;18.60;1.00;;;;;;5070371;28;19909;-62
2021/07/07 02:29:34;;;;;;;;;;;18.50;1.00;;;;;;5070911;28;20136;-62
2021/07/07 02:32:00;;;;;;;;;;;18.50;1.00;;;;;;5071228;28;19916;-60
2021/07/07 02:34:26;;;;;;;;;;;18.50;1.00;;;;;;5071080;28;19909;-62
2021/07/07 02:36:51;;;;;;;;;;;18.50;1.00;;;;;;5071573;28;19908;-62
2021/07/07 02:39:17;;;;;;;;;;;18.50;1.00;;;;;;5069973;28;19954;-62
2021/07/07 02:41:42;;;;;;;;;;;18.50;1.00;;;;;;5070163;28;19919;-62
2021/07/07 02:44:08;;;;;;;;;;;18.50;1.00;;;;;;5071492;28;19916;-61
2021/07/07 02:46:33;;;;;;;;;;;18.50;1.00;;;;;;5063891;28;19931;-60
2021/07/07 02:48:59;;;;;;;;;;;18.50;1.00;;;;;;5061815;28;20273;-62
2021/07/07 02:51:24;;;;;;;;;;;18.50;1.00;;;;;;5071415;28;19995;-62
2021/07/07 02:53:49;;;;;;;;;;;18.40;1.00;;;;;;5070392;28;19912;-62
2021/07/07 02:56:15;;;;;;;;;;;18.40;1.00;;;;;;5070569;28;19989;-62
2021/07/07 02:58:40;;;;;;;;;;;18.40;1.00;;;;;;5070269;28;20828;-62
2021/07/07 03:01:06;;;;;;;;;;;18.40;1.00;;;;;;5068442;28;19915;-62
2021/07/07 03:03:31;;;;;;;;;;;18.40;1.00;;;;;;5049876;28;20016;-61
2021/07/07 03:05:58;;;;;;;;;;;18.40;1.00;;;;;;5051525;28;20451;-61
2021/07/07 03:08:25;;;;;;;;;;;18.40;1.00;;;;;;5059791;28;19908;-62
2021/07/07 03:10:50;;;;;;;;;;;18.30;1.00;;;;;;5070685;28;19913;-62
2021/07/07 03:13:17;;;;;;;;;;;18.20;1.00;;;;;;5069247;28;19919;-62
2021/07/07 03:15:42;;;;;;;;;;;18.20;1.00;;;;;;5071074;28;19912;-62
2021/07/07 03:18:09;;;;;;;;;;;18.10;1.00;;;;;;5069211;28;20325;-62
2021/07/07 03:20:35;;;;;;;;;;;18.10;1.00;;;;;;5070530;28;19998;-62
2021/07/07 03:23:00;;;;;;;;;;;18.20;1.00;;;;;;5069706;28;19927;-61
2021/07/07 03:25:27;;;;;;;;;;;18.10;1.00;;;;;;5070641;28;19908;-62
2021/07/07 03:27:52;;;;;;;;;;;18.10;1.00;;;;;;5068520;28;20399;-62
2021/07/07 03:30:18;;;;;;;;;;;18.10;1.00;;;;;;5070446;28;19940;-60
2021/07/07 03:32:44;;;;;;;;;;;18.10;1.00;;;;;;5069821;28;19916;-60
2021/07/07 03:35:09;;;;;;;;;;;18.10;1.00;;;;;;5070057;28;19978;-60
2021/07/07 03:37:35;;;;;;;;;;;18.00;1.00;;;;;;5069126;28;19912;-62
2021/07/07 03:40:02;;;;;;;;;;;18.10;1.00;;;;;;5069767;28;19909;-62
2021/07/07 03:42:27;;;;;;;;;;;18.10;1.00;;;;;;5069242;28;19931;-62
2021/07/07 03:44:53;;;;;;;;;;;18.00;1.00;;;;;;5070412;28;20011;-62
2021/07/07 03:47:18;;;;;;;;;;;18.00;1.00;;;;;;5068326;28;19944;-62
2021/07/07 03:49:44;;;;;;;;;;;18.00;1.00;;;;;;5069685;28;20386;-62
2021/07/07 03:52:10;;;;;;;;;;;18.00;1.00;;;;;;5069531;28;20008;-62
2021/07/07 03:54:35;;;;;;;;;;;18.00;1.00;;;;;;5069598;28;20068;-62
2021/07/07 03:57:01;;;;;;;;;;;17.90;1.00;;;;;;5069652;28;19966;-63
2021/07/07 03:59:26;;;;;;;;;;;17.90;1.00;;;;;;5068993;28;20322;-63
2021/07/07 04:01:52;;;;;;;;;;;18.00;1.00;;;;;;5069853;28;19935;-62
2021/07/07 04:04:17;;;;;;;;;;;18.00;1.00;;;;;;5069636;28;19995;-63
2021/07/07 04:06:43;;;;;;;;;;;18.00;1.00;;;;;;5069695;28;19908;-62
2021/07/07 04:09:09;;;;;;;;;;;18.10;1.00;;;;;;5068919;28;19958;-63
2021/07/07 04:11:35;;;;;;;;;;;18.00;1.00;;;;;;5064796;28;19916;-65
2021/07/07 04:14:01;;;;;;;;;;;18.00;1.00;;;;;;5060881;28;19916;-64
2021/07/07 04:16:26;;;;;;;;;;;18.00;1.00;;;;;;5049551;28;19995;-65
2021/07/07 04:18:52;;;;;;;;;;;18.00;1.00;;;;;;5063222;28;19961;-65
2021/07/07 04:21:17;;;;;;;;;;;18.00;1.00;;;;;;5069061;28;19909;-63
2021/07/07 04:23:43;;;;;;;;;;;18.00;1.00;;;;;;5061442;28;19985;-66
2021/07/07 04:26:08;;;;;;;;;;;18.00;1.00;;;;;;5049056;28;19909;-63
2021/07/07 04:28:34;;;;;;;;;;;18.00;1.00;;;;;;5047911;28;19933;-63
2021/07/07 04:30:59;;;;;;;;;;;18.10;1.00;;;;;;5063208;28;20274;-63
2021/07/07 04:33:25;;;;;;;;;;;18.00;1.00;;;;;;5068354;28;19932;-63
2021/07/07 04:35:50;;;;;;;;;;;18.10;1.00;;;;;;5068582;28;20007;-62
2021/07/07 04:38:16;;;;;;;;;;;18.10;1.00;;;;;;5067647;28;19912;-63
2021/07/07 04:40:41;;;;;;;;;;;18.10;1.00;;;;;;5067647;28;19923;-63
2021/07/07 04:43:07;;;;;;;;;;;18.10;1.00;;;;;;5067803;28;19912;-63
2021/07/07 04:45:32;;;;;;;;;;;18.10;1.00;;;;;;5068832;28;19947;-63
2021/07/07 04:47:58;;;;;;;;;;;18.10;1.00;;;;;;5067622;28;19966;-63
2021/07/07 04:50:23;;;;;;;;;;;18.20;1.00;;;;;;5069192;28;19908;-63
2021/07/07 04:52:49;;;;;;;;;;;18.20;1.00;;;;;;5068040;28;20329;-63
2021/07/07 04:55:15;;;;;;;;;;;18.20;1.00;;;;;;5068674;28;20276;-63
2021/07/07 04:57:41;;;;;;;;;;;18.20;1.00;;;;;;5067144;28;19909;-63
2021/07/07 05:00:13;;;;;;;;;;;18.20;1.00;;;;;;5068696;28;19962;-63
2021/07/07 05:02:41;;;;;;;;;;;18.20;1.00;;;;;;5068420;28;19979;-63
2021/07/07 05:05:07;;;;;;;;;;;18.20;1.00;;;;;;5068561;28;19995;-63
2021/07/07 05:07:32;;;;;;;;;;;18.20;1.00;;;;;;5067945;28;20000;-63
2021/07/07 05:09:58;;;;;;;;;;;18.20;1.00;;;;;;5067773;28;19909;-62
2021/07/07 05:12:24;;;;;;;;;;;18.20;1.00;;;;;;5067908;28;20418;-62
2021/07/07 05:14:49;;;;;;;;;;;18.30;1.00;;;;;;5067018;28;19908;-63
2021/07/07 05:17:15;;;;;;;;;;;18.20;1.00;;;;;;5068884;28;19962;-63
2021/07/07 05:19:40;;;;;;;;;;;18.30;1.00;;;;;;5066504;28;19912;-63
2021/07/07 05:22:06;;;;;;;;;;;18.30;1.00;;;;;;5065751;28;19920;-63
2021/07/07 05:24:31;;;;;;;;;;;18.30;1.00;;;;;;5061062;28;19912;-63
2021/07/07 05:26:57;;;;;;;;;;;18.40;1.00;;;;;;5058727;28;20035;-63
2021/07/07 05:29:22;;;;;;;;;;;18.30;1.00;;;;;;5057092;28;19915;-62
2021/07/07 05:31:49;;;;;;;;;;;18.10;1.00;;;;;;5055437;28;20095;-63
2021/07/07 05:34:15;;;;;;;;;;;18.10;1.00;;;;;;5058286;28;19989;-62
2021/07/07 05:36:40;;;;;;;;;;;18.10;1.00;;;;;;5059474;28;20384;-62
2021/07/07 05:39:06;;;;;;;;;;;18.00;1.00;;;;;;5059110;28;19909;-63
2021/07/07 05:41:31;;;;;;;;;;;18.10;1.00;;;;;;5058334;28;19921;-61
2021/07/07 05:43:57;;;;;;;;;;;18.10;1.00;;;;;;5059754;28;20015;-61
2021/07/07 05:46:22;;;;;;;;;;;18.10;1.00;;;;;;5062584;28;20037;-61
2021/07/07 05:48:48;;;;;;;;;;;17.90;1.00;;;;;;5062860;28;19942;-62
2021/07/07 05:51:15;;;;;;;;;;;18.00;1.00;;;;;;5072871;28;19982;-62
2021/07/07 05:53:40;;;;;;;;;;;18.10;1.00;;;;;;5071916;28;20362;-61
2021/07/07 05:56:06;;;;;;;;;;;18.10;1.00;;;;;;5072392;28;19916;-63
2021/07/07 05:58:31;;;;;;;;;;;18.20;1.00;;;;;;5067736;28;19931;-63
2021/07/07 06:00:57;;;;;;;;;;;18.40;1.00;;;;;;5056390;28;19920;-62
2021/07/07 06:03:22;;;;;;;;;;;18.40;1.00;;;;;;5051325;28;19917;-63
2021/07/07 06:05:48;;;;;;;;;;;18.40;1.00;;;;;;5052496;28;20032;-62
2021/07/07 06:08:13;;;;;;;;;;;18.50;1.00;;;;;;5059310;28;19912;-62
2021/07/07 06:10:40;;;;;;;;;;;18.60;1.00;;;;;;5555289;22;20202;-64
2021/07/07 06:13:06;;;;;;;;;;;18.70;1.00;;;;;;5046094;28;19952;-62
2021/07/07 06:15:33;;;;;;;;;;;18.80;1.00;;;;;;5052288;28;19917;-62
2021/07/07 06:17:59;;;;;;;;;;;18.80;1.00;;;;;;5050763;28;19909;-62
2021/07/07 06:20:25;;;;;;;;;;;18.90;1.00;;;;;;5044600;28;19913;-62
2021/07/07 06:22:50;;;;;;;;;;;19.00;1.00;;;;;;5048997;28;19924;-62
2021/07/07 06:25:16;;;;;;;;;;;19.00;1.00;;;;;;5047936;28;20409;-63
2021/07/07 06:27:42;;;;;;;;;;;19.00;1.00;;;;;;5049585;28;19909;-63
2021/07/07 06:30:09;;;;;;;;;;;19.10;1.00;;;;;;5049431;28;20008;-64
2021/07/07 06:32:34;;;;;;;;;;;19.20;1.00;;;;;;5051411;28;20306;-62
2021/07/07 06:35:01;;;;;;;;;;;19.20;1.00;;;;;;5041470;28;20003;-62
2021/07/07 06:37:27;;;;;;;;;;;19.30;1.00;;;;;;5031170;28;19962;-62
2021/07/07 06:39:53;;;;;;;;;;;19.30;1.00;;;;;;5030833;28;19909;-62
2021/07/07 06:42:18;;;;;;;;;;;19.40;1.00;;;;;;5030655;28;19913;-64
2021/07/07 06:44:44;;;;;;;;;;;19.50;1.00;;;;;;5031060;28;19917;-64
2021/07/07 06:47:11;;;;;;;;;;;19.70;1.00;;;;;;5047741;28;19916;-64
2021/07/07 06:49:36;;;;;;;;;;;19.80;1.00;;;;;;5050719;28;20269;-62
2021/07/07 06:52:02;;;;;;;;;;;19.90;1.00;;;;;;5050989;28;19928;-64
2021/07/07 06:54:28;;;;;;;;;;;20.00;1.00;;;;;;5051010;28;19943;-63
2021/07/07 06:56:53;;;;;;;;;;;20.00;1.00;;;;;;5051355;28;19983;-64
2021/07/07 06:59:19;;;;;;;;;;;20.00;1.00;;;;;;5049978;28;19912;-62
2021/07/07 07:01:44;;;;;;;;;;;20.00;1.00;;;;;;5050698;28;19996;-63
2021/07/07 07:04:10;;;;;;;;;;;20.00;1.00;;;;;;5051008;28;20395;-60
2021/07/07 07:06:35;;;;;;;;;;;20.00;1.00;;;;;;5051790;28;19948;-63
2021/07/07 07:09:02;;;;;;;;;;;19.90;1.00;;;;;;5050275;28;19916;-62
2021/07/07 07:11:28;;;;;;;;;;;20.00;1.00;;;;;;5050795;28;20031;-62
2021/07/07 07:13:53;;;;;;;;;;;20.00;1.00;;;;;;5050353;28;20101;-62
2021/07/07 07:16:20;;;;;;;;;;;20.00;1.00;;;;;;5050890;28;20066;-64
2021/07/07 07:18:46;;;;;;;;;;;20.00;1.00;;;;;;5049851;28;20387;-62
2021/07/07 07:21:11;;;;;;;;;;;20.10;1.00;;;;;;5051089;28;20008;-62
2021/07/07 07:23:36;;;;;;;;;;;20.20;1.00;;;;;;5050654;28;19974;-62
2021/07/07 07:26:02;;;;;;;;;;;20.20;1.00;;;;;;5050581;28;19909;-63
2021/07/07 07:28:28;;;;;;;;;;;20.20;1.00;;;;;;5049497;28;19916;-63
2021/07/07 07:30:57;;;;;;;;;;;20.20;1.00;;;;;;5051475;28;19919;-63
2021/07/07 07:33:22;;;;;;;;;;;20.20;1.00;;;;;;5050274;28;19982;-62
2021/07/07 07:35:48;;;;;;;;;;;20.20;1.00;;;;;;5050913;28;19917;-62
2021/07/07 07:38:15;;;;;;;;;;;20.30;1.00;;;;;;5049473;28;19920;-62
2021/07/07 07:40:42;;;;;;;;;;;20.30;1.00;;;;;;5050749;28;20269;-64
2021/07/07 07:43:09;;;;;;;;;;;20.30;1.00;;;;;;5049452;28;20162;-62
2021/07/07 07:45:35;;;;;;;;;;;20.40;1.00;;;;;;5050501;28;19916;-62
2021/07/07 07:48:01;;;;;;;;;;;20.40;1.00;;;;;;5048942;28;20247;-64
2021/07/07 07:50:26;;;;;;;;;;;20.40;1.00;;;;;;5050208;28;19915;-63
2021/07/07 07:52:52;;;;;;;;;;;20.50;1.00;;;;;;5049998;28;19913;-63
2021/07/07 07:55:18;;;;;;;;;;;20.60;1.00;;;;;;5049769;28;20332;-63
2021/07/07 07:57:44;;;;;;;;;;;20.60;1.00;;;;;;5049400;28;19913;-63
2021/07/07 08:00:14;;;;;;;;;;;20.60;1.00;;;;;;5049039;28;19913;-63
2021/07/07 08:02:41;;;;;;;;;;;20.60;1.00;;;;;;5050312;28;20373;-64
2021/07/07 08:05:07;;;;;;;;;;;20.60;1.00;;;;;;5048710;28;19920;-63
2021/07/07 08:07:32;;;;;;;;;;;20.60;1.00;;;;;;5049253;28;20279;-63
2021/07/07 08:09:58;;;;;;;;;;;20.70;1.00;;;;;;5049103;28;19966;-63
2021/07/07 08:12:24;;;;;;;;;;;20.70;1.00;;;;;;5049640;28;20063;-63
2021/07/07 08:14:51;;;;;;;;;;;20.80;1.00;;;;;;5049378;28;19909;-63
2021/07/07 08:17:20;;;;;;;;;;;20.90;1.00;;;;;;5064701;28;19908;-63
2021/07/07 08:19:46;;;;;;;;;;;21.00;99.90;;;;;;5038650;28;20227;-63
2021/07/07 08:22:12;;;;;;;;;;;21.20;99.90;;;;;;5032880;28;20288;-62
2021/07/07 08:24:37;;;;;;;;;;;21.10;99.90;;;;;;5049944;28;19913;-64
2021/07/07 08:27:03;;;;;;;;;;;20.90;99.90;;;;;;5049964;28;19936;-63
2021/07/07 08:29:29;;;;;;;;;;;20.80;1.00;;;;;;5048856;28;20383;-63
2021/07/07 08:31:54;;;;;;;;;;;20.60;1.00;;;;;;5049819;28;19992;-63
2021/07/07 08:34:20;;;;;;;;;;;20.50;1.00;;;;;;5045445;28;19917;-63
2021/07/07 08:36:45;;;;;;;;;;;20.10;1.00;;;;;;5029672;28;19910;-62
2021/07/07 08:39:11;;;;;;;;;;;19.90;1.00;;;;;;5029044;28;19916;-63
2021/07/07 08:41:37;;;;;;;;;;;19.80;1.00;;;;;;5029174;28;19985;-63
2021/07/07 08:44:03;;;;;;;;;;;20.00;1.00;;;;;;5028613;28;20452;-63
2021/07/07 08:46:29;;;;;;;;;;;20.20;1.00;;;;;;5029480;28;20444;-63
2021/07/07 08:48:54;;;;;;;;;;;20.30;1.00;;;;;;5028413;28;19913;-63
2021/07/07 08:51:20;;;;;;;;;;;20.30;1.00;;;;;;5029584;28;20365;-61
2021/07/07 08:53:46;;;;;;;;;;;20.00;1.00;;;;;;5029291;28;19917;-62
2021/07/07 08:56:12;;;;;;;;;;;19.70;1.00;;;;;;5028405;28;19959;-63
2021/07/07 08:58:38;;;;;;;;;;;19.50;1.00;;;;;;5028163;28;19921;-63
2021/07/07 09:01:04;;;;;;;;;;;19.40;1.00;;;;;;5029821;28;20432;-63
2021/07/07 09:03:30;;;;;;;;;;;19.30;1.00;;;;;;5029011;28;19913;-63
2021/07/07 09:05:56;;;;;;;;;;;19.40;1.00;;;;;;5029359;28;19913;-63
2021/07/07 09:08:28;;;;;;;;;;;19.50;1.00;;;;;;5038310;28;19909;-63
2021/07/07 09:10:55;;;;;;;;;;;19.60;1.00;;;;;;5048293;28;19944;-63
2021/07/07 09:13:21;;;;;;;;;;;19.70;1.00;;;;;;5047992;28;19928;-61
2021/07/07 09:15:47;;;;;;;;;;;19.90;1.00;;;;;;5049838;28;19943;-60
2021/07/07 09:18:32;;;;;;;;;;;20.10;1.00;;;;;;5049595;28;20226;-62
2021/07/07 09:20:57;;;;;;;;;;;20.20;1.00;;;;;;5028915;28;20007;-61
2021/07/07 09:23:27;;;;;;;;;;;20.40;1.00;;;;;;5046992;28;20000;-61
2021/07/07 09:25:58;;;;;;;;;;;20.50;1.00;;;;;;5048614;28;19920;-62
2021/07/07 09:28:25;;;;;;;;;;;20.60;1.00;;;;;;5045936;28;20266;-62
2021/07/07 09:30:51;;;;;;;;;;;20.60;1.00;;;;;;5049282;28;19912;-60
2021/07/07 09:33:17;;;;;;;;;;;20.70;99.90;;;;;;5048130;28;19913;-62
2021/07/07 09:35:43;;;;;;;;;;;20.70;99.90;;;;;;5123773;22;19982;-62
2021/07/07 09:38:09;;;;;;;;;;;20.80;99.90;;;;;;5067690;28;19921;-63
2021/07/07 09:40:39;;;;;;;;;;;20.80;79.20;;;;;;5067040;28;20011;-63
2021/07/07 09:43:05;;;;;;;;;;;20.90;1.00;;;;;;5068669;28;19920;-64
2021/07/07 09:45:30;;;;;;;;;;;20.90;1.00;;;;;;5069249;28;19971;-63
2021/07/07 09:47:58;;;;;;;;;;;21.00;1.00;;;;;;5059372;28;19916;-63
2021/07/07 09:50:23;;;;;;;;;;;21.00;1.00;;;;;;5069004;28;19912;-63
2021/07/07 09:52:49;;;;;;;;;;;21.00;1.00;;;;;;5068220;28;20491;-62
2021/07/07 09:55:15;;;;;;;;;;;21.00;99.90;;;;;;5068803;28;19908;-63
2021/07/07 09:57:44;;;;;;;;;;;21.10;99.90;;;;;;5068328;28;20443;-63
2021/07/07 10:00:11;;;;;;;;;;;21.10;1.00;;;;;;5068216;28;20446;-63
2021/07/07 10:02:37;;;;;;;;;;;21.10;99.90;;;;;;5068361;28;20392;-64
2021/07/07 10:05:03;;;;;;;;;;;21.00;99.90;;;;;;5067839;28;19909;-62
2021/07/07 10:07:29;;;;;;;;;;;20.90;1.00;;;;;;5065292;28;19912;-63
2021/07/07 10:09:54;;;;;;;;;;;20.80;97.80;;;;;;5047819;28;19912;-61
2021/07/07 10:12:21;;;;;;;;;;;20.80;1.00;;;;;;5048356;28;19970;-64
2021/07/07 10:14:46;;;;;;;;;;;20.50;99.90;;;;;;5048016;28;19999;-62
2021/07/07 10:17:12;;;;;;;;;;;20.40;99.90;;;;;;5047936;28;20007;-61
2021/07/07 10:19:38;;;;;;;;;;;20.50;1.00;;;;;;5056593;28;19998;-62
2021/07/07 10:22:04;;;;;;;;;;;20.60;99.90;;;;;;5068436;28;20356;-62
2021/07/07 10:24:30;;;;;;;;;;;20.80;99.90;;;;;;5061622;28;19921;-62
2021/07/07 10:26:58;;;;;;;;;;;21.00;99.90;;;;;;5048789;28;20308;-62
2021/07/07 10:29:25;;;;;;;;;;;21.20;99.90;;;;;;5050303;28;19999;-62
2021/07/07 10:31:51;;;;;;;;;;;21.40;92.40;;;;;;5052502;28;19981;-62
2021/07/07 10:34:17;;;;;;;;;;;21.50;99.90;;;;;;5054019;28;19962;-63
2021/07/07 10:36:43;;;;;;;;;;;21.50;1.00;;;;;;5071733;28;19916;-62
2021/07/07 10:39:10;;;;;;;;;;;21.50;1.00;;;;;;5071364;28;19995;-63
2021/07/07 10:41:55;;;;;;;;;;;21.40;1.00;;;;;;5071747;28;19999;-62
2021/07/07 10:44:24;;;;;;;;;;;21.30;1.00;;;;;;5070371;28;19909;-63
2021/07/07 10:46:54;;;;;;;;;;;21.10;1.00;;;;;;5071511;28;19912;-64
2021/07/07 10:49:20;;;;;;;;;;;21.20;1.00;;;;;;5070577;28;19966;-63
2021/07/07 10:51:46;;;;;;;;;;;21.20;99.90;;;;;;5071260;28;20345;-60
2021/07/07 10:54:22;;;;;;;;;;;21.00;99.90;;;;;;5071397;28;19908;-61
2021/07/07 10:56:48;;;;;;;;;;;21.00;1.00;;;;;;5071070;28;19979;-62
2021/07/07 10:59:43;;;;;;;;;;;21.10;1.00;;;;;;5069637;28;19912;-62
2021/07/07 11:02:16;;;;;;;;;;;21.10;99.90;;;;;;5053592;28;19916;-62
2021/07/07 11:04:42;;;;;;;;;;;21.30;1.00;;;;;;5070821;28;19921;-62
2021/07/07 11:07:27;;;;;;;;;;;21.10;1.00;;;;;;5071673;28;19908;-62
2021/07/07 11:09:53;;;;;;;;;;;21.20;99.90;;;;;;5050933;28;19919;-63
2021/07/07 11:12:20;;;;;;;;;;;21.40;1.00;;;;;;5051309;28;19991;-63
2021/07/07 11:15:00;;;;;;;;;;;21.60;1.00;;;;;;5050650;28;19931;-63
2021/07/07 11:17:30;;;;;;;;;;;21.80;55.70;;;;;;5050800;28;19913;-63
2021/07/07 11:19:57;;;;;;;;;;;22.10;1.00;;;;;;5062413;28;19912;-63
2021/07/07 11:22:24;;;;;;;;;;;22.20;99.90;;;;;;5071529;28;19920;-63
2021/07/07 11:24:50;;;;;;;;;;;22.30;88.20;;;;;;5061326;28;20020;-63
2021/07/07 11:27:16;;;;;;;;;;;22.30;99.90;;;;;;5064326;28;19916;-63
2021/07/07 11:29:43;;;;;;;;;;;22.30;1.00;;;;;;5062840;28;20377;-63
2021/07/07 11:32:21;;;;;;;;;;;22.40;99.90;;;;;;5070233;28;20015;-63
2021/07/07 11:34:54;;;;;;;;;;;22.30;1.00;;;;;;5070144;28;19953;-62
2021/07/07 11:37:21;;;;;;;;;;;22.20;95.90;;;;;;5070672;28;19924;-62
2021/07/07 11:40:00;;;;;;;;;;;22.20;99.90;;;;;;5069790;28;19913;-61
2021/07/07 11:42:25;;;;;;;;;;;22.30;99.90;;;;;;5070905;28;20011;-64
2021/07/07 11:44:50;;;;;;;;;;;22.40;99.90;;;;;;5069915;28;20008;-62
2021/07/07 11:47:24;;;;;;;;;;;22.50;99.90;;;;;;5070035;28;19919;-63
2021/07/07 11:50:05;;;;;;;;;;;22.50;99.90;;;;;;5068316;28;20274;-63
2021/07/07 11:52:30;;;;;;;;;;;22.60;99.90;;;;;;5070184;28;19916;-63
2021/07/07 11:54:56;;;;;;;;;;;22.70;1.00;;;;;;5069879;28;19909;-63
2021/07/07 11:57:21;;;;;;;;;;;22.80;44.60;;;;;;5069576;28;19912;-62
2021/07/07 11:59:53;;;;;;;;;;;22.80;1.00;;;;;;5069065;28;19912;-63
2021/07/07 12:02:19;;;;;;;;;;;22.90;1.00;;;;;;5069906;28;19925;-64
2021/07/07 12:04:46;;;;;;;;;;;23.00;1.00;;;;;;5069202;28;19988;-64
2021/07/07 12:07:11;;;;;;;;;;;23.00;1.00;;;;;;5070112;28;19908;-63
2021/07/07 12:09:37;;;;;;;;;;;23.00;1.00;;;;;;5063685;28;19923;-63
2021/07/07 12:12:04;;;;;;;;;;;23.00;1.00;;;;;;5059696;28;19927;-63
2021/07/07 12:14:31;;;;;;;;;;;22.90;99.90;;;;;;5056277;28;19999;-63
2021/07/07 12:16:57;;;;;;;;;;;22.90;99.90;;;;;;5059704;28;19913;-63
2021/07/07 12:19:23;;;;;;;;;;;22.80;99.90;;;;;;5058216;28;19909;-63
2021/07/07 12:21:49;;;;;;;;;;;22.70;99.90;;;;;;5061222;28;19948;-64
2021/07/07 12:24:18;;;;;;;;;;;22.70;99.90;;;;;;5059348;28;19908;-62
2021/07/07 12:26:45;;;;;;;;;;;22.60;99.90;;;;;;5059555;28;19924;-63
2021/07/07 12:29:14;;;;;;;;;;;22.60;99.90;;;;;;5057921;28;19908;-62
2021/07/07 12:31:41;;;;;;;;;;;22.60;99.90;;;;;;5056972;28;19916;-62
2021/07/07 12:34:08;;;;;;;;;;;22.70;99.90;;;;;;5050801;28;19913;-64
2021/07/07 12:36:34;;;;;;;;;;;22.80;43.40;;;;;;5069235;28;19917;-64
2021/07/07 12:39:00;;;;;;;;;;;22.90;1.00;;;;;;5062862;28;19915;-64
2021/07/07 12:41:35;;;;;;;;;;;22.90;1.00;;;;;;5057672;28;20447;-64
2021/07/07 12:44:14;;;;;;;;;;;22.90;1.00;;;;;;5058116;28;19909;-64
2021/07/07 12:46:49;;;;;;;;;;;23.00;1.00;;;;;;5060744;28;19913;-64
2021/07/07 12:49:22;;;;;;;;;;;23.00;1.00;;;;;;5058140;28;19917;-63
2021/07/07 12:51:48;;;;;;;;;;;22.70;1.00;;;;;;5052285;28;20014;-63
2021/07/07 12:54:21;;;;;;;;;;;22.10;1.00;;;;;;5057906;28;19959;-62
2021/07/07 12:56:56;;;;;;;;;;;21.80;68.40;;;;;;5057419;28;19924;-60
2021/07/07 12:59:22;;;;;;;;;;;21.20;1.00;;;;;;5056136;28;19909;-62
2021/07/07 13:01:57;;;;;;;;;;;21.10;1.00;;;;;;5058809;28;19908;-62
2021/07/07 13:04:22;;;;;;;;;;;21.10;2.90;;;;;;5058581;28;19918;-63
2021/07/07 13:06:59;;;;;;;;;;;21.20;1.00;;;;;;5057554;28;19912;-64
2021/07/07 13:09:25;;;;;;;;;;;21.40;1.00;;;;;;5057740;28;19978;-61
2021/07/07 13:11:58;;;;;;;;;;;21.50;1.00;;;;;;5067864;28;19916;-63
2021/07/07 13:14:24;;;;;;;;;;;21.60;1.00;;;;;;5067933;28;19920;-62
2021/07/07 13:16:51;;;;;;;;;;;21.70;1.00;;;;;;5069147;28;19931;-62
2021/07/07 13:19:37;;;;;;;;;;;21.70;1.00;;;;;;5069678;28;19957;-62
2021/07/07 13:22:07;;;;;;;;;;;21.80;53.60;;;;;;5069830;28;20300;-62
2021/07/07 13:24:36;;;;;;;;;;;21.70;99.90;;;;;;5065154;28;19929;-59
2021/07/07 13:27:09;;;;;;;;;;;21.60;99.90;;;;;;5052730;28;19909;-63
2021/07/07 13:29:47;;;;;;;;;;;21.50;99.90;;;;;;5050032;28;20374;-61
2021/07/07 13:32:18;;;;;;;;;;;21.60;1.00;;;;;;5052921;28;19924;-61
2021/07/07 13:34:51;;;;;;;;;;;21.60;99.90;;;;;;5058822;28;19919;-62
2021/07/07 13:37:32;;;;;;;;;;;21.70;99.90;;;;;;5070603;28;19927;-60
2021/07/07 13:39:59;;;;;;;;;;;21.70;1.00;;;;;;5067717;28;19912;-62
2021/07/07 13:42:25;;;;;;;;;;;21.80;1.00;;;;;;5070368;28;19912;-63
2021/07/07 13:44:51;;;;;;;;;;;21.80;1.00;;;;;;5069383;28;19915;-63
2021/07/07 13:47:18;;;;;;;;;;;21.70;1.00;;;;;;5068705;28;19916;-61
2021/07/07 13:49:43;;;;;;;;;;;21.60;31.50;;;;;;5068280;28;19913;-61
2021/07/07 13:52:09;;;;;;;;;;;21.60;59.20;;;;;;5068429;28;19958;-60
2021/07/07 13:54:37;;;;;;;;;;;21.40;98.90;;;;;;5067943;28;19909;-62
2021/07/07 13:57:03;;;;;;;;;;;21.30;99.90;;;;;;5068682;28;19908;-61
2021/07/07 13:59:28;;;;;;;;;;;21.30;1.00;;;;;;5066892;28;19909;-61
2021/07/07 14:01:54;;;;;;;;;;;21.30;1.00;;;;;;5068331;28;19908;-62
2021/07/07 14:04:19;;;;;;;;;;;21.20;1.00;;;;;;5071537;28;20371;-63
2021/07/07 14:06:45;;;;;;;;;;;21.20;1.50;;;;;;5072004;28;20057;-63
2021/07/07 14:09:10;;;;;;;;;;;21.20;99.90;;;;;;5071779;28;20003;-61
2021/07/07 14:11:36;;;;;;;;;;;21.10;1.00;;;;;;5070769;28;20214;-62
2021/07/07 14:14:02;;;;;;;;;;;20.90;97.10;;;;;;5057392;28;19959;-62
2021/07/07 14:16:28;;;;;;;;;;;20.80;17.80;;;;;;5065148;28;19922;-60
2021/07/07 14:18:53;;;;;;;;;;;20.70;99.90;;;;;;5056861;28;20011;-62
2021/07/07 14:21:18;;;;;;;;;;;20.50;1.00;;;;;;5069833;28;19954;-63
2021/07/07 14:23:44;;;;;;;;;;;20.10;99.90;;;;;;5062641;28;19913;-62
2021/07/07 14:26:10;;;;;;;;;;;20.20;99.90;;;;;;5051064;28;20241;-62